createdAt,value
2022-08-17T00:00:43.930Z,5.10
2022-08-17T00:03:19.693Z,4.30
2022-08-17T00:05:52.761Z,4.15
2022-08-17T00:08:25.490Z,4.18
2022-08-17T00:10:54.203Z,4.13
2022-08-17T00:13:26.085Z,3.58
2022-08-17T00:15:57.187Z,4.03
2022-08-17T00:19:06.680Z,4.53
2022-08-17T00:21:13.921Z,4.90
2022-08-17T00:23:44.285Z,4.35
2022-08-17T00:26:15.512Z,4.85
2022-08-17T00:29:04.873Z,4.43
2022-08-17T00:31:32.535Z,4.28
2022-08-17T00:33:59.954Z,4.20
2022-08-17T00:36:27.451Z,4.18
2022-08-17T00:38:54.971Z,4.30
2022-08-17T00:41:26.297Z,4.13
2022-08-17T00:43:56.684Z,4.13
2022-08-17T00:46:28.799Z,5.15
2022-08-17T00:48:56.510Z,6.10
2022-08-17T00:51:30.859Z,5.03
2022-08-17T00:54:03.202Z,4.32
2022-08-17T00:56:33.399Z,4.18
2022-08-17T00:59:02.498Z,3.92
2022-08-17T01:01:32.509Z,4.05
2022-08-17T01:04:00.924Z,3.80
2022-08-17T01:06:29.784Z,3.90
2022-08-17T01:08:59.689Z,3.75
2022-08-17T01:11:27.925Z,3.95
2022-08-17T01:13:55.353Z,3.97
2022-08-17T01:16:26.799Z,3.95
2022-08-17T01:18:58.524Z,3.95
2022-08-17T01:21:31.855Z,4.28
2022-08-17T01:24:01.234Z,4.00
2022-08-17T01:26:32.080Z,3.80
2022-08-17T01:29:00.073Z,3.60
2022-08-17T01:31:33.012Z,3.60
2022-08-17T01:34:03.261Z,4.10
2022-08-17T01:36:30.721Z,3.55
2022-08-17T01:38:58.116Z,3.80
2022-08-17T01:41:28.454Z,3.97
2022-08-17T01:44:02.784Z,3.65
2022-08-17T01:46:33.615Z,3.40
2022-08-17T01:49:01.801Z,3.88
2022-08-17T01:51:31.897Z,4.00
2022-08-17T01:54:02.470Z,3.90
2022-08-17T01:56:34.290Z,3.70
2022-08-17T01:59:01.965Z,3.70
2022-08-17T02:01:31.472Z,3.90
2022-08-17T02:04:01.145Z,4.05
2022-08-17T02:06:31.330Z,4.10
2022-08-17T02:09:16.629Z,4.25
2022-08-17T02:11:46.387Z,4.07
2022-08-17T02:14:14.362Z,3.85
2022-08-17T02:16:41.992Z,4.38
2022-08-17T02:19:15.965Z,4.32
2022-08-17T02:21:45.144Z,4.55
2022-08-17T02:24:58.202Z,3.83
2022-08-17T02:27:09.593Z,3.90
2022-08-17T02:29:37.085Z,4.00
2022-08-17T02:32:05.237Z,4.20
2022-08-17T02:34:32.733Z,4.07
2022-08-17T02:37:00.138Z,4.40
2022-08-17T02:39:27.562Z,4.50
2022-08-17T02:42:01.035Z,4.57
2022-08-17T02:44:39.220Z,4.15
2022-08-17T02:47:09.118Z,4.72
2022-08-17T02:49:36.916Z,4.63
2022-08-17T02:52:06.447Z,4.10
2022-08-17T02:54:39.888Z,5.68
2022-08-17T02:57:10.458Z,4.82
2022-08-17T02:59:39.931Z,4.43
2022-08-17T03:02:09.915Z,3.88
2022-08-17T03:04:37.901Z,3.47
2022-08-17T03:07:05.656Z,3.80
2022-08-17T03:09:33.330Z,3.70
2022-08-17T03:12:05.285Z,4.53
2022-08-17T03:14:32.671Z,4.50
2022-08-17T03:17:01.477Z,3.88
2022-08-17T03:19:28.838Z,3.60
2022-08-17T03:21:58.277Z,3.50
2022-08-17T03:24:28.864Z,3.72
2022-08-17T03:26:56.446Z,4.18
2022-08-17T03:29:24.304Z,3.90
2022-08-17T03:31:51.698Z,9.73
2022-08-17T03:34:20.537Z,6.78
2022-08-17T03:36:47.908Z,5.30
2022-08-17T03:39:15.345Z,4.82
2022-08-17T03:41:42.756Z,4.50
2022-08-17T03:44:10.182Z,4.00
2022-08-17T03:46:37.570Z,3.95
2022-08-17T03:49:06.707Z,3.92
2022-08-17T03:51:35.522Z,3.42
2022-08-17T03:54:03.016Z,5.18
2022-08-17T03:56:35.514Z,4.72
2022-08-17T03:59:02.902Z,4.05
2022-08-17T04:01:30.376Z,3.60
2022-08-17T04:03:57.846Z,3.60
2022-08-17T04:06:25.293Z,3.60
2022-08-17T04:08:54.141Z,3.42
2022-08-17T04:11:21.573Z,3.47
2022-08-17T04:13:48.964Z,12.55
2022-08-17T04:16:16.389Z,5.32
2022-08-17T04:18:43.794Z,4.70
2022-08-17T04:21:11.302Z,4.20
2022-08-17T04:23:38.733Z,4.25
2022-08-17T04:26:07.677Z,3.90
2022-08-17T04:28:35.088Z,3.75
2022-08-17T04:31:02.504Z,3.83
2022-08-17T04:33:30.492Z,3.72
2022-08-17T04:35:59.954Z,4.72
2022-08-17T04:38:30.834Z,3.83
2022-08-17T04:41:00.090Z,4.43
2022-08-17T04:43:30.827Z,3.55
2022-08-17T04:46:00.385Z,3.70
2022-08-17T04:48:36.138Z,6.97
2022-08-17T04:51:07.753Z,5.88
2022-08-17T04:53:35.310Z,4.85
2022-08-17T04:56:02.811Z,4.53
2022-08-17T04:58:32.197Z,5.18
2022-08-17T05:00:59.952Z,5.47
2022-08-17T05:03:28.083Z,4.20
2022-08-17T05:05:56.068Z,3.90
2022-08-17T05:08:23.588Z,3.83
2022-08-17T05:10:50.984Z,3.60
2022-08-17T05:13:20.709Z,3.70
2022-08-17T05:18:17.739Z,4.43
2022-08-17T05:20:45.524Z,4.22
2022-08-17T05:23:16.146Z,4.22
2022-08-17T05:25:47.403Z,8.25
2022-08-17T05:28:16.155Z,9.30
2022-08-17T05:30:44.589Z,6.60
2022-08-17T05:33:15.424Z,4.95
2022-08-17T05:35:45.067Z,4.10
2022-08-17T05:40:39.836Z,4.05
2022-08-17T05:43:11.284Z,3.50
2022-08-17T05:45:54.856Z,3.80
2022-08-17T05:48:35.562Z,4.20
2022-08-17T05:51:43.316Z,3.40
2022-08-17T05:54:37.627Z,3.88
2022-08-17T05:57:20.885Z,4.07
2022-08-17T05:59:58.325Z,4.07
2022-08-17T06:02:48.366Z,3.50
2022-08-17T06:05:38.952Z,3.90
2022-08-17T06:08:15.425Z,3.30
2022-08-17T06:10:47.387Z,3.67
2022-08-17T06:13:31.583Z,3.40
2022-08-17T06:16:04.722Z,3.88
2022-08-17T06:18:57.474Z,3.65
2022-08-17T06:21:30.399Z,4.65
2022-08-17T06:24:06.765Z,4.85
2022-08-17T06:26:42.757Z,3.55
2022-08-17T06:29:21.087Z,4.40
2022-08-17T06:31:48.487Z,4.10
2022-08-17T06:34:15.999Z,4.75
2022-08-17T06:36:51.420Z,4.40
2022-08-17T06:39:40.059Z,4.47
2022-08-17T06:42:54.883Z,5.50
2022-08-17T06:45:10.871Z,4.85
2022-08-17T06:47:53.048Z,4.32
2022-08-17T06:50:25.776Z,3.92
2022-08-17T06:52:58.483Z,4.05
2022-08-17T06:55:37.310Z,4.30
2022-08-17T06:58:15.954Z,4.18
2022-08-17T07:00:46.986Z,3.90
2022-08-17T07:03:26.556Z,4.25
2022-08-17T07:05:57.019Z,4.20
2022-08-17T07:08:34.626Z,3.95
2022-08-17T07:11:05.338Z,3.70
2022-08-17T07:13:42.342Z,3.42
2022-08-17T07:16:17.933Z,3.70
2022-08-17T07:18:45.908Z,3.63
2022-08-17T07:21:22.941Z,3.38
2022-08-17T07:24:28.110Z,3.72
2022-08-17T07:27:10.235Z,4.22
2022-08-17T07:29:41.849Z,4.22
2022-08-17T07:32:11.584Z,4.15
2022-08-17T07:37:24.463Z,3.53
2022-08-17T07:40:14.920Z,3.75
2022-08-17T07:42:44.926Z,3.65
2022-08-17T07:45:15.273Z,3.90
2022-08-17T07:47:50.228Z,3.50
2022-08-17T07:50:26.450Z,3.60
2022-08-17T07:52:53.868Z,3.53
2022-08-17T07:55:31.608Z,3.60
2022-08-17T07:57:59.682Z,3.70
2022-08-17T08:00:32.704Z,3.75
2022-08-17T08:03:04.847Z,3.55
2022-08-17T08:05:49.744Z,3.78
2022-08-17T08:08:30.021Z,3.55
2022-08-17T08:11:03.908Z,3.17
2022-08-17T08:13:32.585Z,3.30
2022-08-17T08:16:21.074Z,3.20
2022-08-17T08:18:55.517Z,3.45
2022-08-17T08:21:33.477Z,3.45
2022-08-17T08:24:18.130Z,3.10
2022-08-17T08:26:55.624Z,3.20
2022-08-17T08:29:31.891Z,3.88
2022-08-17T08:32:11.251Z,3.45
2022-08-17T08:35:02.217Z,3.20
2022-08-17T08:37:43.109Z,3.58
2022-08-17T08:40:28.543Z,2.85
2022-08-17T08:43:06.584Z,3.30
2022-08-17T08:45:47.035Z,3.63
2022-08-17T08:48:55.657Z,3.00
2022-08-17T08:51:26.040Z,3.03
2022-08-17T08:54:01.949Z,3.55
2022-08-17T08:56:36.874Z,3.50
2022-08-17T08:59:16.725Z,2.90
2022-08-17T09:01:56.103Z,3.13
2022-08-17T09:05:13.007Z,3.13
2022-08-17T09:07:44.418Z,2.95
2022-08-17T09:10:21.987Z,3.50
2022-08-17T09:13:09.330Z,3.63
2022-08-17T09:15:45.186Z,3.55
2022-08-17T09:19:00.203Z,3.63
2022-08-17T09:21:14.359Z,3.10
2022-08-17T09:23:50.944Z,2.88
2022-08-17T09:26:22.103Z,3.05
2022-08-17T09:28:52.142Z,2.90
2022-08-17T09:31:31.299Z,2.78
2022-08-17T09:34:03.686Z,2.70
2022-08-17T09:36:36.351Z,3.05
2022-08-17T09:39:08.387Z,2.90
2022-08-17T09:41:49.318Z,3.10
2022-08-17T09:44:25.222Z,3.13
2022-08-17T09:47:00.271Z,3.28
2022-08-17T09:49:32.760Z,3.40
2022-08-17T09:52:07.084Z,3.85
2022-08-17T09:54:39.969Z,3.45
2022-08-17T09:57:29.662Z,2.83
2022-08-17T10:00:12.506Z,2.70
2022-08-17T10:03:08.362Z,3.13
2022-08-17T10:05:43.435Z,3.28
2022-08-17T10:08:22.894Z,2.65
2022-08-17T10:11:01.924Z,3.03
2022-08-17T10:13:38.652Z,3.17
2022-08-17T10:16:15.496Z,3.20
2022-08-17T10:18:56.861Z,10.85
2022-08-17T10:21:26.030Z,5.60
2022-08-17T10:24:03.085Z,5.22
2022-08-17T10:26:43.053Z,4.85
2022-08-17T10:29:28.977Z,5.63
2022-08-17T10:32:00.144Z,3.55
2022-08-17T10:34:46.210Z,3.67
2022-08-17T10:37:38.770Z,4.22
2022-08-17T10:40:22.445Z,4.07
2022-08-17T10:42:56.869Z,3.63
2022-08-17T10:45:29.561Z,4.28
2022-08-17T10:48:05.358Z,3.83
2022-08-17T10:50:47.232Z,3.90
2022-08-17T10:53:46.698Z,3.90
2022-08-17T10:56:22.937Z,3.65
2022-08-17T10:58:52.362Z,3.70
2022-08-17T11:01:21.611Z,3.20
2022-08-17T11:03:51.079Z,3.60
2022-08-17T11:06:26.169Z,3.55
2022-08-17T11:09:31.570Z,3.13
2022-08-17T11:12:26.817Z,3.25
2022-08-17T11:15:17.821Z,3.03
2022-08-17T11:18:17.587Z,3.10
2022-08-17T11:21:21.941Z,3.22
2022-08-17T11:24:11.871Z,3.63
2022-08-17T11:26:41.189Z,3.50
2022-08-17T11:29:20.969Z,2.80
2022-08-17T11:32:01.987Z,2.80
2022-08-17T11:34:32.160Z,2.90
2022-08-17T11:37:27.706Z,2.78
2022-08-17T11:40:13.248Z,3.13
2022-08-17T11:42:52.724Z,3.00
2022-08-17T11:45:45.232Z,3.15
2022-08-17T11:48:28.563Z,2.83
2022-08-17T11:51:00.753Z,3.00
2022-08-17T11:54:21.583Z,3.10
2022-08-17T11:56:48.374Z,3.47
2022-08-17T11:59:51.485Z,2.90
2022-08-17T12:02:38.556Z,3.50
2022-08-17T12:05:27.501Z,3.45
2022-08-17T12:08:06.872Z,3.33
2022-08-17T12:10:36.602Z,3.00
2022-08-17T12:15:37.670Z,3.35
2022-08-17T12:18:05.157Z,3.65
2022-08-17T12:20:34.583Z,3.28
2022-08-17T12:23:09.614Z,3.28
2022-08-17T12:25:43.148Z,3.28
2022-08-17T12:28:23.060Z,3.10
2022-08-17T12:30:52.090Z,3.13
2022-08-17T12:33:25.265Z,3.30
2022-08-17T12:35:59.650Z,3.38
2022-08-17T12:38:32.242Z,3.60
2022-08-17T12:41:01.338Z,3.20
2022-08-17T12:43:30.208Z,3.38
2022-08-17T12:45:59.696Z,3.97
2022-08-17T12:48:28.928Z,3.35
2022-08-17T12:51:01.226Z,5.35
2022-08-17T12:53:30.896Z,3.75
2022-08-17T12:58:31.580Z,3.40
2022-08-17T13:01:02.348Z,3.88
2022-08-17T13:03:37.199Z,3.47
2022-08-17T13:06:06.647Z,4.03
2022-08-17T13:08:36.546Z,3.85
2022-08-17T13:11:07.495Z,3.42
2022-08-17T13:13:38.987Z,3.42
2022-08-17T13:16:14.974Z,3.42
2022-08-17T13:18:45.381Z,3.20
2022-08-17T13:21:23.180Z,3.17
2022-08-17T13:23:59.348Z,3.15
2022-08-17T13:26:31.652Z,5.10
2022-08-17T13:29:01.673Z,4.00
2022-08-17T13:31:41.400Z,3.83
2022-08-17T13:34:34.613Z,3.65
2022-08-17T13:37:35.436Z,3.60
2022-08-17T13:40:31.994Z,3.40
2022-08-17T13:42:59.423Z,4.47
2022-08-17T13:46:07.367Z,4.22
2022-08-17T13:48:34.940Z,4.13
2022-08-17T13:51:31.287Z,4.07
2022-08-17T13:54:02.843Z,4.20
2022-08-17T13:56:38.825Z,4.20
2022-08-17T13:59:10.965Z,5.40
2022-08-17T14:01:42.769Z,4.60
2022-08-17T14:04:13.787Z,4.60
2022-08-17T14:06:53.335Z,5.13
2022-08-17T14:09:23.581Z,4.93
2022-08-17T14:14:20.317Z,4.43
2022-08-17T14:16:49.279Z,4.75
2022-08-17T14:19:16.816Z,5.22
2022-08-17T14:21:46.489Z,4.25
2022-08-17T14:26:46.701Z,3.60
2022-08-17T14:29:15.559Z,3.13
2022-08-17T14:31:43.183Z,3.13
2022-08-17T14:34:22.515Z,3.20
2022-08-17T14:36:51.393Z,3.20
2022-08-17T14:39:19.482Z,2.80
2022-08-17T14:41:47.156Z,2.92
2022-08-17T14:44:14.631Z,3.28
2022-08-17T14:46:43.924Z,2.97
2022-08-17T14:49:13.154Z,2.65
2022-08-17T14:51:43.866Z,2.80
2022-08-17T14:54:29.433Z,4.15
2022-08-17T14:57:11.580Z,3.35
2022-08-17T14:59:47.696Z,3.30
2022-08-17T15:02:18.304Z,3.63
2022-08-17T15:04:45.883Z,3.10
2022-08-17T15:07:14.946Z,3.88
2022-08-17T15:09:42.549Z,3.42
2022-08-17T15:14:43.263Z,5.40
2022-08-17T15:17:10.634Z,5.82
2022-08-17T15:19:38.056Z,7.13
2022-08-17T15:22:06.822Z,7.93
2022-08-17T15:24:35.700Z,9.33
2022-08-17T15:27:03.109Z,8.87
2022-08-17T15:29:30.568Z,6.97
2022-08-17T15:32:00.699Z,5.78
2022-08-17T15:34:28.370Z,5.53
2022-08-17T15:36:55.823Z,4.95
2022-08-17T15:39:23.269Z,4.70
2022-08-17T15:41:58.780Z,4.32
2022-08-17T15:44:30.202Z,4.22
2022-08-17T15:47:02.545Z,4.72
2022-08-17T15:49:29.953Z,4.82
2022-08-17T15:51:57.399Z,4.65
2022-08-17T15:54:24.803Z,4.50
2022-08-17T15:57:03.600Z,4.90
2022-08-17T15:59:31.040Z,4.70
2022-08-17T16:03:15.301Z,4.45
2022-08-17T16:04:45.864Z,4.32
2022-08-17T16:07:15.431Z,5.05
2022-08-17T16:09:42.886Z,4.95
2022-08-17T16:12:13.622Z,5.28
2022-08-17T16:14:41.109Z,4.90
2022-08-17T16:17:39.003Z,4.97
2022-08-17T16:19:56.074Z,4.50
2022-08-17T16:22:31.230Z,5.20
2022-08-17T16:24:59.051Z,5.07
2022-08-17T16:27:27.928Z,5.78
2022-08-17T16:29:55.586Z,6.57
2022-08-17T16:32:31.842Z,6.97
2022-08-17T16:35:02.763Z,6.00
2022-08-17T16:37:30.528Z,6.65
2022-08-17T16:40:01.822Z,5.57
2022-08-17T16:42:32.628Z,5.20
2022-08-17T16:45:04.717Z,5.45
2022-08-17T16:47:32.329Z,6.03
2022-08-17T16:50:00.152Z,6.30
2022-08-17T16:52:32.509Z,6.18
2022-08-17T16:55:01.907Z,5.60
2022-08-17T16:57:30.942Z,5.50
2022-08-17T16:59:58.979Z,5.47
2022-08-17T17:02:31.366Z,5.15
2022-08-17T17:05:05.696Z,5.68
2022-08-17T17:07:52.995Z,5.53
2022-08-17T17:10:29.187Z,5.18
2022-08-17T17:13:03.730Z,5.32
2022-08-17T17:15:45.696Z,4.78
2022-08-17T17:18:15.999Z,5.65
2022-08-17T17:20:52.472Z,5.05
2022-08-17T17:23:35.283Z,5.15
2022-08-17T17:26:11.752Z,4.78
2022-08-17T17:28:53.018Z,4.65
2022-08-17T17:31:22.711Z,4.88
2022-08-17T17:36:26.124Z,4.68
2022-08-17T17:38:58.692Z,4.60
2022-08-17T17:41:30.479Z,4.97
2022-08-17T17:44:07.566Z,4.78
2022-08-17T17:46:39.622Z,5.15
2022-08-17T17:49:07.039Z,5.10
2022-08-17T17:52:02.912Z,6.20
2022-08-17T17:54:43.716Z,6.15
2022-08-17T17:59:56.228Z,6.18
2022-08-17T18:02:37.808Z,5.88
2022-08-17T18:05:17.603Z,7.38
2022-08-17T18:07:52.881Z,7.00
2022-08-17T18:10:30.544Z,7.40
2022-08-17T18:13:08.336Z,7.03
2022-08-17T18:15:44.212Z,6.72
2022-08-17T18:18:36.476Z,7.45
2022-08-17T18:21:10.186Z,6.35
2022-08-17T18:23:45.505Z,6.47
2022-08-17T18:26:13.005Z,6.47
2022-08-17T18:28:42.057Z,6.95
2022-08-17T18:31:15.753Z,6.68
2022-08-17T18:33:44.851Z,6.72
2022-08-17T18:36:25.649Z,6.40
2022-08-17T18:39:11.013Z,6.28
2022-08-17T18:41:42.240Z,6.00
2022-08-17T18:44:23.565Z,5.47
2022-08-17T18:47:07.218Z,5.93
2022-08-17T18:49:35.494Z,6.03
2022-08-17T18:52:13.994Z,4.72
2022-08-17T18:54:59.520Z,6.05
2022-08-17T18:57:31.859Z,5.68
2022-08-17T18:59:59.833Z,4.72
2022-08-17T19:02:45.055Z,6.07
2022-08-17T19:05:27.453Z,6.07
2022-08-17T19:08:13.852Z,5.90
2022-08-17T19:10:46.149Z,7.25
2022-08-17T19:13:24.025Z,6.95
2022-08-17T19:16:12.247Z,6.30
2022-08-17T19:18:50.740Z,6.13
2022-08-17T19:21:22.969Z,6.35
2022-08-17T19:23:55.770Z,5.85
2022-08-17T19:26:53.398Z,6.90
2022-08-17T19:29:19.612Z,7.60
2022-08-17T19:31:50.315Z,9.63
2022-08-17T19:34:30.018Z,9.27
2022-08-17T19:37:05.873Z,9.35
2022-08-17T19:39:42.955Z,9.25
2022-08-17T19:42:16.308Z,7.85
2022-08-17T19:44:54.829Z,7.20
2022-08-17T19:47:53.186Z,7.50
2022-08-17T19:50:25.530Z,6.82
2022-08-17T19:52:59.472Z,9.18
2022-08-17T19:55:36.933Z,10.75
2022-08-17T19:58:11.142Z,9.90
2022-08-17T20:00:50.580Z,8.52
2022-08-17T20:03:23.157Z,7.85
2022-08-17T20:06:11.999Z,6.97
2022-08-17T20:08:57.136Z,7.30
2022-08-17T20:11:31.552Z,6.70
2022-08-17T20:14:04.095Z,6.85
2022-08-17T20:16:33.161Z,7.22
2022-08-17T20:19:04.898Z,6.85
2022-08-17T20:21:40.489Z,7.45
2022-08-17T20:24:20.844Z,8.88
2022-08-17T20:26:58.326Z,8.45
2022-08-17T20:29:39.604Z,6.65
2022-08-17T20:32:24.450Z,6.90
2022-08-17T20:35:02.965Z,6.60
2022-08-17T20:37:34.119Z,6.43
2022-08-17T20:40:21.127Z,6.28
2022-08-17T20:42:49.051Z,6.95
2022-08-17T20:45:50.781Z,6.63
2022-08-17T20:48:37.327Z,7.38
2022-08-17T20:51:25.660Z,7.38
2022-08-17T20:54:28.540Z,7.47
2022-08-17T20:56:58.866Z,7.20
2022-08-17T20:59:54.902Z,7.25
2022-08-17T21:02:24.676Z,7.38
2022-08-17T21:05:34.344Z,6.97
2022-08-17T21:08:13.649Z,6.50
2022-08-17T21:10:43.713Z,7.70
2022-08-17T21:13:52.579Z,8.27
2022-08-17T21:16:39.058Z,6.70
2022-08-17T21:19:22.203Z,7.00
2022-08-17T21:22:01.394Z,6.32
2022-08-17T21:24:42.595Z,5.90
2022-08-17T21:27:28.579Z,5.38
2022-08-17T21:30:20.763Z,5.00
2022-08-17T21:33:23.191Z,5.13
2022-08-17T21:35:53.949Z,4.90
2022-08-17T21:38:34.549Z,5.15
2022-08-17T21:41:02.163Z,4.45
2022-08-17T21:43:34.044Z,4.40
2022-08-17T21:46:04.430Z,5.10
2022-08-17T21:48:40.687Z,4.68
2022-08-17T21:51:12.357Z,4.60
2022-08-17T21:53:46.871Z,4.72
2022-08-17T21:56:24.258Z,4.25
2022-08-17T21:58:59.662Z,4.53
2022-08-17T22:01:30.506Z,4.40
2022-08-17T22:04:01.503Z,4.32
2022-08-17T22:06:35.701Z,4.13
2022-08-17T22:09:16.980Z,4.28
2022-08-17T22:11:50.479Z,4.20
2022-08-17T22:14:19.870Z,4.70
2022-08-17T22:16:48.757Z,4.22
2022-08-17T22:19:16.416Z,4.00
2022-08-17T22:21:43.821Z,4.05
2022-08-17T22:24:18.447Z,4.10
2022-08-17T22:27:02.696Z,4.25
2022-08-17T22:29:53.331Z,3.90
2022-08-17T22:32:34.176Z,4.00
2022-08-17T22:35:32.286Z,3.95
2022-08-17T22:38:30.729Z,4.05
2022-08-17T22:41:30.343Z,3.78
2022-08-17T22:46:27.640Z,3.88
2022-08-17T22:48:57.403Z,3.97
2022-08-17T22:51:28.417Z,4.00
2022-08-17T22:54:00.087Z,4.25
2022-08-17T22:56:27.702Z,4.40
2022-08-17T22:58:58.863Z,4.07
2022-08-17T23:01:31.011Z,4.30
2022-08-17T23:04:00.421Z,5.80
2022-08-17T23:06:28.645Z,5.95
2022-08-17T23:08:56.381Z,5.60
2022-08-17T23:11:42.830Z,5.22
2022-08-17T23:14:13.391Z,5.00
2022-08-17T23:16:42.944Z,4.95
2022-08-17T23:19:11.212Z,4.95
2022-08-17T23:21:39.076Z,5.15
2022-08-17T23:24:07.045Z,4.80
2022-08-17T23:26:35.958Z,5.03
2022-08-17T23:29:03.710Z,4.82
2022-08-17T23:31:31.527Z,4.82
2022-08-17T23:34:00.954Z,5.15
2022-08-17T23:36:28.341Z,4.75
2022-08-17T23:38:55.749Z,5.35
2022-08-17T23:41:24.072Z,4.60
2022-08-17T23:43:52.935Z,4.47
2022-08-17T23:46:20.446Z,4.57
2022-08-17T23:48:48.228Z,4.40
2022-08-17T23:51:20.995Z,4.80
2022-08-17T23:53:51.858Z,4.43
2022-08-17T23:56:19.459Z,4.75
2022-08-17T23:58:46.831Z,4.40
